This is the latest recevied weather packets stored in our database for station/object DG0PX-12. If no packets are shown the sender has not sent any weather packets the latest 10 day(s).
| Time | Temp. | Humidity | Pressure | Rain* | Wind** | Luminosity | Snow |
|---|---|---|---|---|---|---|---|
| 1787687065 | 25° C | 58% | 949.3 hPa | - | - | - | - |
| 1787686165 | 25° C | 59% | 949.2 hPa | - | - | - | - |
| 1787685265 | 23.33° C | 67% | 949.3 hPa | - | - | - | - |
| 1787684365 | 24.44° C | 64% | 949.2 hPa | - | - | - | - |
| 1787683465 | 23.89° C | 66% | 949.1 hPa | - | - | - | - |
| 1787682565 | 22.78° C | 71% | 949 hPa | - | - | - | - |
| 1787681665 | 25° C | 62% | 948.9 hPa | - | - | - | - |
| 1787680765 | 23.89° C | 66% | 948.9 hPa | - | - | - | - |
| 1787679865 | 22.78° C | 70% | 948.7 hPa | - | - | - | - |
| 1787678965 | 24.44° C | 64% | 948.6 hPa | - | - | - | - |
| 1787678065 | 24.44° C | 62% | 948.6 hPa | - | - | - | - |
| 1787677165 | 25.56° C | 59% | 948.6 hPa | - | - | - | - |
| 1787676265 | 22.22° C | 74% | 948.4 hPa | - | - | - | - |
| 1787675365 | 24.44° C | 60% | 948.5 hPa | - | - | - | - |
| 1787674465 | 25° C | 61% | 948.5 hPa | - | - | - | - |
| 1787673564 | 25° C | 62% | 948.6 hPa | - | - | - | - |
| 1787672664 | 24.44° C | 62% | 948.7 hPa | - | - | - | - |
| 1787671764 | 23.89° C | 63% | 948.6 hPa | - | - | - | - |
| 1787670864 | 25° C | 58% | 948.5 hPa | - | - | - | - |
| 1787669964 | 23.89° C | 62% | 948.5 hPa | - | - | - | - |
| 1787669064 | 24.44° C | 58% | 948.3 hPa | - | - | - | - |
| 1787668164 | 24.44° C | 60% | 948.2 hPa | - | - | - | - |
| 1787667264 | 23.89° C | 62% | 948.1 hPa | - | - | - | - |
| 1787666364 | 25° C | 57% | 948 hPa | - | - | - | - |
| 1787665464 | 22.78° C | 66% | 947.8 hPa | - | - | - | - |
* Rain since midnight (hover to see other rain measurements)
** Current wind speed in m/s (hover to see current wind gust speed)